Time;durP1;ratioP1;P1;durP2;ratioP2;P2;SDS_P1;SDS_P2;PMS_P1;PMS_P2;Temp;Humidity;BMP_temperature;BMP_pressure;BME280_temperature;BME280_humidity;BME280_pressure;Samples;Min_cycle;Max_cycle;Signal;HPM_P1;HPM_P2
2023/10/07 00:00:31;;;;;;;;;14.00;12.33;;;;;14.60;100.00;102106.00;5015175;28;45656;-81
2023/10/07 00:02:59;;;;;;;;;15.33;12.67;;;;;14.58;100.00;102099.84;5012375;28;46071;-80
2023/10/07 00:05:40;;;;;;;;;15.33;10.67;;;;;14.64;100.00;102106.47;5004656;28;45755;-80
2023/10/07 00:08:08;;;;;;;;;17.33;14.33;;;;;14.63;100.00;102097.34;5013273;28;45395;-81
2023/10/07 00:10:37;;;;;;;;;16.00;13.00;;;;;14.64;100.00;102104.59;5006632;28;45555;-82
2023/10/07 00:13:10;;;;;;;;;17.00;14.67;;;;;14.54;100.00;102083.88;5008826;28;46477;-82
2023/10/07 00:15:46;;;;;;;;;18.67;16.67;;;;;14.60;100.00;102105.16;5005164;28;45600;-79
2023/10/07 00:18:13;;;;;;;;;15.67;14.33;;;;;14.60;100.00;102105.16;5011530;28;45870;-80
2023/10/07 00:20:56;;;;;;;;;16.00;12.67;;;;;14.57;100.00;102098.13;5010338;28;45579;-81
2023/10/07 00:23:26;;;;;;;;;13.33;13.33;;;;;14.51;100.00;102079.63;5011343;28;45796;-80
2023/10/07 00:25:54;;;;;;;;;15.67;15.33;;;;;14.55;100.00;102093.84;5009699;28;46659;-80
2023/10/07 00:28:35;;;;;;;;;18.00;14.33;;;;;14.42;100.00;102091.88;5006139;28;45957;-80
2023/10/07 00:31:13;;;;;;;;;17.00;12.67;;;;;14.42;100.00;102091.88;5004815;28;45924;-81
2023/10/07 00:33:57;;;;;;;;;17.00;11.00;;;;;14.30;100.00;102078.63;5008100;28;46300;-80
2023/10/07 00:39:07;;;;;;;;;13.67;12.00;;;;;14.47;100.00;102100.38;5002849;28;45947;-79
2023/10/07 00:41:39;;;;;;;;;16.33;13.67;;;;;14.45;100.00;102097.00;5009595;28;45795;-79
2023/10/07 00:44:17;;;;;;;;;18.67;15.00;;;;;14.33;100.00;102071.84;5004366;28;45630;-80
2023/10/07 00:46:48;;;;;;;;;10.33;9.00;;;;;14.32;100.00;102066.53;5008466;28;47367;-80
2023/10/07 00:49:22;;;;;;;;;15.33;11.33;;;;;14.46;100.00;102095.91;5005538;28;45871;-81
2023/10/07 00:51:49;;;;;;;;;13.00;11.00;;;;;14.33;100.00;102069.09;5009583;28;45761;-81
2023/10/07 00:54:18;;;;;;;;;15.00;14.67;;;;;14.39;100.00;102082.09;5015678;28;45348;-81
2023/10/07 00:57:13;;;;;;;;;12.33;10.33;;;;;14.43;100.00;102094.44;5005530;28;47369;-79
2023/10/07 00:59:40;;;;;;;;;13.67;12.00;;;;;14.43;100.00;102096.31;5004251;28;45467;-80
2023/10/07 01:02:10;;;;;;;;;10.00;9.67;;;;;14.38;100.00;102080.38;5012272;28;45506;-81
2023/10/07 01:04:45;;;;;;;;;16.00;13.00;;;;;14.41;100.00;102079.97;5012162;28;46233;-80
2023/10/07 01:07:18;;;;;;;;;15.00;12.67;;;;;14.35;100.00;102066.13;5006721;28;46149;-80
2023/10/07 01:12:44;;;;;;;;;12.00;10.67;;;;;14.42;100.00;102067.03;5012003;28;45545;-79
2023/10/07 01:17:47;;;;;;;;;13.33;11.67;;;;;14.38;100.00;102072.09;5011249;28;45462;-81
2023/10/07 01:20:13;;;;;;;;;12.67;10.00;;;;;14.35;100.00;102074.41;5012845;28;45466;-80
2023/10/07 01:22:45;;;;;;;;;15.00;12.67;;;;;14.31;100.00;102060.13;5009955;28;45467;-81
2023/10/07 01:25:18;;;;;;;;;15.00;14.00;;;;;14.24;100.00;102043.56;5014687;28;45890;-81
2023/10/07 01:27:50;;;;;;;;;17.33;14.00;;;;;14.32;100.00;102061.00;5013023;28;45626;-81
2023/10/07 01:30:16;;;;;;;;;14.33;11.33;;;;;14.27;100.00;102045.06;5004527;28;45763;-80
2023/10/07 01:32:53;;;;;;;;;16.00;10.00;;;;;14.29;100.00;102046.53;5013421;28;45439;-80
2023/10/07 01:35:25;;;;;;;;;15.33;10.67;;;;;14.21;100.00;102023.81;5027872;28;45916;-81
2023/10/07 01:38:07;;;;;;;;;19.33;16.33;;;;;14.28;100.00;102044.88;5011424;28;45545;-81
2023/10/07 01:40:43;;;;;;;;;13.33;11.00;;;;;14.28;100.00;102039.34;5004519;28;45401;-80
2023/10/07 01:43:08;;;;;;;;;14.67;10.33;;;;;14.28;100.00;102039.34;5003801;28;45454;-80
2023/10/07 01:45:39;;;;;;;;;17.33;14.00;;;;;14.20;100.00;102022.94;5002074;28;45837;-82
2023/10/07 01:48:07;;;;;;;;;15.33;13.67;;;;;14.25;100.00;102039.75;5008960;28;46545;-82
2023/10/07 01:50:40;;;;;;;;;15.67;14.00;;;;;14.26;100.00;102041.44;5002439;28;46075;-81
2023/10/07 01:53:07;;;;;;;;;14.00;12.00;;;;;14.24;100.00;102032.50;5012770;28;45440;-81
2023/10/07 01:55:52;;;;;;;;;15.00;13.00;;;;;14.24;100.00;102040.78;5014630;28;46060;-80
2023/10/07 01:58:19;;;;;;;;;14.33;12.33;;;;;14.17;100.00;102028.84;5009901;28;45559;-80
2023/10/07 02:00:51;;;;;;;;;16.67;15.00;;;;;14.22;100.00;102056.72;5018337;28;45410;-81
2023/10/07 02:03:18;;;;;;;;;11.33;11.00;;;;;14.20;100.00;102050.53;5016398;28;45784;-83
2023/10/07 02:05:48;;;;;;;;;13.00;12.00;;;;;14.18;100.00;102049.88;5018477;28;45092;-81
2023/10/07 02:08:18;;;;;;;;;15.33;13.67;;;;;14.11;100.00;102044.28;5022217;28;45924;-80
2023/10/07 02:10:45;;;;;;;;;12.67;9.33;;;;;14.13;100.00;102058.75;5031539;28;45251;-80
2023/10/07 02:13:14;;;;;;;;;12.67;10.00;;;;;14.10;100.00;102066.56;5021529;28;45493;-80
2023/10/07 02:15:42;;;;;;;;;11.33;8.67;;;;;14.04;100.00;102053.56;5012402;28;45842;-80
2023/10/07 02:18:15;;;;;;;;;16.67;10.00;;;;;14.04;100.00;102067.38;5010865;28;48040;-80
2023/10/07 02:20:43;;;;;;;;;15.33;12.67;;;;;13.92;100.00;102062.41;5011007;28;45542;-81
2023/10/07 02:23:12;;;;;;;;;16.00;11.67;;;;;13.97;100.00;102069.22;5013202;28;45582;-81
2023/10/07 02:25:40;;;;;;;;;16.00;10.33;;;;;13.86;100.00;102051.31;5015354;28;45608;-80
2023/10/07 02:28:06;;;;;;;;;12.00;10.33;;;;;13.99;100.00;102084.53;5013019;28;45843;-80
2023/10/07 02:33:22;;;;;;;;;9.33;9.33;;;;;13.93;100.00;102053.06;5003872;28;46077;-80
2023/10/07 02:35:55;;;;;;;;;10.33;9.33;;;;;14.07;100.00;102069.72;5021311;28;46013;-79
2023/10/07 02:38:25;;;;;;;;;8.67;8.67;;;;;14.07;100.00;102062.31;5010747;28;45560;-79
2023/10/07 02:40:52;;;;;;;;;14.67;9.00;;;;;14.13;100.00;102068.91;5012852;28;45360;-79
2023/10/07 02:43:17;;;;;;;;;13.33;9.67;;;;;14.16;100.00;102065.78;5012725;28;45765;-80
2023/10/07 02:45:43;;;;;;;;;10.67;10.67;;;;;14.16;100.00;102056.66;5014163;28;45533;-82
2023/10/07 02:48:10;;;;;;;;;13.33;11.00;;;;;14.21;100.00;102066.03;5012501;28;48065;-80
2023/10/07 02:50:41;;;;;;;;;13.67;10.67;;;;;14.22;100.00;102064.13;5008991;28;45874;-79
2023/10/07 02:53:15;;;;;;;;;12.00;10.67;;;;;14.22;100.00;102051.19;5005444;28;45479;-79
2023/10/07 02:55:48;;;;;;;;;17.00;15.33;;;;;14.21;100.00;102055.00;5017939;28;45874;-78
2023/10/07 03:01:11;;;;;;;;;12.00;10.67;;;;;14.22;100.00;102051.19;5003178;28;45435;-78
2023/10/07 03:03:40;;;;;;;;;12.33;11.00;;;;;14.22;100.00;102045.66;5012533;28;45556;-78
2023/10/07 03:06:07;;;;;;;;;14.33;12.33;;;;;14.06;100.00;102033.03;5011254;28;45512;-78
2023/10/07 03:11:21;;;;;;;;;14.00;11.00;;;;;14.04;100.00;102035.16;5012263;28;45467;-77
2023/10/07 03:13:56;;;;;;;;;13.67;12.00;;;;;14.11;100.00;102057.25;5001132;28;45730;-76
2023/10/07 03:21:54;;;;;;;;;18.00;15.67;;;;;14.12;100.00;102064.47;5009995;28;45856;-78
2023/10/07 03:24:13;;;;;;;;;18.00;16.00;;;;;14.10;100.00;102070.19;5011451;28;45578;-77
2023/10/07 03:26:40;;;;;;;;;13.67;12.33;;;;;14.00;100.00;102053.13;5009788;28;45784;-77
2023/10/07 03:29:16;;;;;;;;;10.67;10.67;;;;;14.03;100.00;102060.16;5010410;28;46340;-79
2023/10/07 03:34:12;;;;;;;;;13.00;12.67;;;;;14.03;100.00;102063.78;5012230;28;45457;-81
2023/10/07 03:37:14;;;;;;;;;16.67;13.67;;;;;14.00;100.00;102057.81;5013326;28;45809;-81
2023/10/07 03:42:19;;;;;;;;;19.67;15.00;;;;;13.99;100.00;102051.41;5010900;28;46000;-77
2023/10/07 03:44:47;;;;;;;;;18.00;12.33;;;;;14.08;100.00;102074.19;5011015;28;45818;-79
2023/10/07 03:47:15;;;;;;;;;15.33;14.33;;;;;14.05;100.00;102077.34;5010546;28;45488;-83
2023/10/07 03:49:41;;;;;;;;;13.67;12.67;;;;;13.98;100.00;102065.41;5013042;28;45748;-81
2023/10/07 03:52:12;;;;;;;;;17.00;13.00;;;;;14.01;100.00;102065.00;5012264;28;45744;-79
2023/10/07 03:54:40;;;;;;;;;19.33;16.00;;;;;13.97;100.00;102070.09;5018958;28;45292;-78
2023/10/07 03:57:07;;;;;;;;;14.00;12.33;;;;;13.92;100.00;102062.41;5016183;28;45953;-77
2023/10/07 03:59:39;;;;;;;;;13.67;12.00;;;;;13.95;100.00;102066.66;5011186;28;45516;-78
2023/10/07 04:04:58;;;;;;;;;11.67;9.33;;;;;13.93;100.00;102064.09;5012394;28;45650;-80
2023/10/07 04:07:25;;;;;;;;;19.00;14.67;;;;;13.92;100.00;102064.28;4999047;28;45871;-78
2023/10/07 04:09:51;;;;;;;;;17.00;14.33;;;;;13.86;100.00;102060.44;5010213;28;47816;-80
2023/10/07 04:12:16;;;;;;;;;17.00;12.67;;;;;13.88;100.00;102071.28;5021144;28;45607;-81
2023/10/07 04:14:42;;;;;;;;;17.67;14.00;;;;;13.86;100.00;102063.22;5020976;28;45563;-80
2023/10/07 04:17:12;;;;;;;;;15.33;13.67;;;;;13.88;100.00;102065.78;5022795;28;45944;-79
2023/10/07 04:19:40;;;;;;;;;16.00;14.33;;;;;13.80;100.00;102046.59;5003439;28;47028;-80
2023/10/07 04:22:08;;;;;;;;;13.33;12.00;;;;;13.79;100.00;102048.50;5012118;28;45411;-80
2023/10/07 04:24:35;;;;;;;;;17.67;17.67;;;;;13.81;100.00;102054.66;5014386;28;45497;-81
2023/10/07 04:27:03;;;;;;;;;16.67;13.33;;;;;13.82;100.00;102063.78;5012558;28;46056;-79
2023/10/07 04:29:31;;;;;;;;;13.00;13.00;;;;;13.78;100.00;102060.56;5011631;28;47098;-80
2023/10/07 04:31:58;;;;;;;;;19.33;17.33;;;;;13.81;100.00;102062.09;5011117;28;45774;-79
2023/10/07 04:34:26;;;;;;;;;17.33;15.33;;;;;13.80;100.00;102052.94;5022456;28;45579;-81
2023/10/07 04:42:22;;;;;;;;;18.33;18.33;;;;;13.65;100.00;102042.00;5008172;28;45979;-76
2023/10/07 04:47:34;;;;;;;;;14.33;12.00;;;;;13.73;100.00;102068.59;5014359;28;45395;-76
2023/10/07 04:52:30;;;;;;;;;16.33;12.33;;;;;13.64;100.00;102048.56;5013616;28;45642;-77
2023/10/07 04:55:00;;;;;;;;;18.33;15.67;;;;;13.72;100.00;102055.84;5008736;28;45845;-79
2023/10/07 05:03:08;;;;;;;;;16.67;12.67;;;;;13.76;100.00;102062.69;5002747;28;45868;-78
2023/10/07 05:05:34;;;;;;;;;17.33;15.00;;;;;13.71;100.00;102057.78;5012636;28;45964;-77
2023/10/07 05:11:04;;;;;;;;;20.00;19.67;;;;;13.75;100.00;102067.34;5005023;28;45890;-80
2023/10/07 05:13:33;;;;;;;;;17.00;12.33;;;;;13.71;100.00;102065.16;5011471;28;45876;-79
2023/10/07 05:15:59;;;;;;;;;19.00;15.33;;;;;13.70;100.00;102063.47;5011730;28;45747;-77
2023/10/07 05:18:24;;;;;;;;;13.67;13.67;;;;;13.59;100.00;102042.78;5016215;28;45689;-80
2023/10/07 05:20:52;;;;;;;;;17.00;12.00;;;;;13.73;100.00;102068.59;5011129;28;46083;-80
2023/10/07 05:23:18;;;;;;;;;14.33;12.00;;;;;13.68;100.00;102060.06;5026599;28;45723;-78
2023/10/07 05:25:50;;;;;;;;;18.33;15.33;;;;;13.65;100.00;102060.44;5014548;28;45541;-77
2023/10/07 05:28:20;;;;;;;;;19.00;16.33;;;;;13.72;100.00;102072.41;5013800;28;45388;-80
2023/10/07 05:30:52;;;;;;;;;21.00;17.33;;;;;13.57;100.00;102050.41;5020220;28;45833;-79
2023/10/07 05:33:20;;;;;;;;;14.00;11.33;;;;;13.63;100.00;102051.53;5011433;28;45514;-77
2023/10/07 05:35:49;;;;;;;;;16.00;16.00;;;;;13.56;100.00;102038.53;5011000;28;45553;-78
2023/10/07 05:38:16;;;;;;;;;16.67;15.00;;;;;13.72;100.00;102067.72;5010684;28;45507;-77
2023/10/07 05:40:41;;;;;;;;;15.33;12.33;;;;;13.52;100.00;102039.97;5009980;28;46931;-76
2023/10/07 05:43:08;;;;;;;;;15.67;15.67;;;;;13.73;100.00;102068.59;5024064;28;45779;-82
2023/10/07 05:45:34;;;;;;;;;17.33;12.33;;;;;13.72;100.00;102059.44;5014455;28;45874;-88
2023/10/07 05:48:01;;;;;;;;;18.33;17.33;;;;;13.50;100.00;102022.81;5012465;28;45774;-80
2023/10/07 05:50:27;;;;;;;;;17.33;15.00;;;;;13.73;100.00;102063.09;5016923;28;46634;-80
2023/10/07 05:52:53;;;;;;;;;20.67;18.00;;;;;13.75;100.00;102060.97;5006126;28;45473;-78
2023/10/07 05:55:18;;;;;;;;;18.67;16.33;;;;;13.67;100.00;102050.09;5019448;28;45454;-77
2023/10/07 05:57:43;;;;;;;;;24.67;19.67;;;;;13.77;100.00;102061.63;5010220;28;45450;-78
2023/10/07 06:00:09;;;;;;;;;20.33;15.00;;;;;13.74;100.00;102049.09;5005060;28;47133;-79
2023/10/07 06:02:37;;;;;;;;;19.00;16.67;;;;;13.73;100.00;102049.31;5007561;28;45844;-78
2023/10/07 06:05:06;;;;;;;;;22.00;18.00;;;;;13.64;100.00;102025.66;5008951;28;45515;-79
2023/10/07 06:07:32;;;;;;;;;20.67;18.33;;;;;13.83;100.00;102057.22;5020084;28;45736;-82
2023/10/07 06:09:59;;;;;;;;;22.00;22.00;;;;;13.83;100.00;102051.69;5031449;28;48312;-84
2023/10/07 06:12:25;;;;;;;;;33.00;26.33;;;;;13.88;100.00;102066.63;5036779;28;45442;-80
2023/10/07 06:14:50;;;;;;;;;28.00;23.00;;;;;13.88;100.00;102058.34;5025396;28;45945;-80
2023/10/07 06:17:16;;;;;;;;;16.00;13.00;;;;;13.99;100.00;102059.69;5011987;28;45741;-81
2023/10/07 06:19:43;;;;;;;;;17.33;16.33;;;;;14.07;100.00;102062.31;5012414;28;45541;-83
2023/10/07 06:22:12;;;;;;;;;18.67;17.33;;;;;14.19;100.00;102064.50;5010577;28;45442;-81
2023/10/07 06:24:55;;;;;;;;;21.67;16.33;;;;;14.28;100.00;102069.69;5012847;28;45710;-80
2023/10/07 06:27:21;;;;;;;;;21.00;17.33;;;;;14.39;100.00;102071.03;5009558;28;45822;-78
2023/10/07 06:29:48;;;;;;;;;21.33;17.33;;;;;14.43;100.00;102057.69;5025831;28;46152;-80
2023/10/07 06:32:24;;;;;;;;;19.33;16.67;;;;;14.50;100.00;102053.06;5009393;28;45707;-80
2023/10/07 06:34:54;;;;;;;;;25.00;21.33;;;;;14.69;100.00;102065.31;5009303;28;45605;-79
2023/10/07 06:37:25;;;;;;;;;30.00;24.00;;;;;14.91;100.00;102068.84;5008599;28;45642;-80
2023/10/07 06:39:51;;;;;;;;;22.67;19.33;;;;;15.20;100.00;102080.63;5005604;28;45995;-79
2023/10/07 06:42:24;;;;;;;;;58.67;44.33;;;;;15.42;100.00;102072.19;5007029;28;45701;-79
2023/10/07 06:44:52;;;;;;;;;157.25;123.00;;;;;15.83;100.00;102085.06;5020031;28;45525;-77
2023/10/07 06:47:17;;;;;;;;;20.67;20.67;;;;;16.08;100.00;102067.81;5012122;28;45575;-78
2023/10/07 06:49:43;;;;;;;;;19.33;18.00;;;;;16.29;100.00;102055.66;5003223;28;45902;-78
2023/10/07 06:52:12;;;;;;;;;21.33;17.33;;;;;16.53;100.00;102070.78;5010295;28;45635;-78
2023/10/07 06:54:38;;;;;;;;;16.67;13.00;;;;;16.49;100.00;102050.13;5010911;28;45708;-78
2023/10/07 06:57:10;;;;;;;;;21.00;18.67;;;;;16.75;100.00;102082.41;5017853;28;45770;-78
2023/10/07 06:59:40;;;;;;;;;16.33;14.00;;;;;16.72;100.00;102072.66;5014268;28;45151;-79
2023/10/07 07:02:06;;;;;;;;;18.00;14.67;;;;;16.79;100.00;102069.00;5006529;28;45452;-79
2023/10/07 07:04:32;;;;;;;;;17.67;16.67;;;;;16.93;100.00;102078.97;5007108;28;45698;-78
2023/10/07 07:06:58;;;;;;;;;22.00;15.67;;;;;16.99;100.00;102080.03;5007936;28;46195;-78
2023/10/07 07:12:12;;;;;;;;;18.33;16.00;;;;;17.16;100.00;102081.25;5005044;28;45722;-78
2023/10/07 07:14:50;;;;;;;;;25.33;18.33;;;;;17.24;100.00;102083.75;5006671;28;46075;-79
2023/10/07 07:17:29;;;;;;;;;12.33;12.33;;;;;17.31;100.00;102082.91;5006994;28;45655;-77
2023/10/07 07:22:47;;;;;;;;;68.25;53.75;;;;;17.27;100.00;102054.75;5008289;28;45697;-78
2023/10/07 07:25:35;;;;;;;;;12.00;12.00;;;;;17.44;100.00;102080.91;5004965;28;45723;-78
2023/10/07 07:28:01;;;;;;;;;20.67;19.00;;;;;17.58;100.00;102091.91;4999928;28;46304;-79
2023/10/07 07:30:35;;;;;;;;;23.00;20.33;;;;;17.69;100.00;102101.44;5005261;28;46326;-77
2023/10/07 07:33:11;;;;;;;;;19.67;14.33;;;;;17.68;100.00;102091.41;5006067;28;45602;-76
2023/10/07 07:35:44;;;;;;;;;25.00;21.67;;;;;17.69;100.00;102077.31;5016519;28;45655;-79
2023/10/07 07:40:44;;;;;;;;;23.33;19.33;;;;;17.92;100.00;102092.53;5007931;28;45680;-77
2023/10/07 07:43:13;;;;;;;;;19.67;15.67;;;;;18.10;100.00;102117.63;5008834;28;46542;-78
2023/10/07 07:45:41;;;;;;;;;18.67;16.33;;;;;18.13;100.00;102119.94;5006856;28;45453;-84
2023/10/07 07:48:07;;;;;;;;;24.00;22.33;;;;;18.13;100.00;102111.59;5008637;28;46350;-77
2023/10/07 07:50:41;;;;;;;;;22.67;19.33;;;;;18.31;100.00;102126.63;5002405;28;47580;-78
2023/10/07 07:53:07;;;;;;;;;18.33;18.33;;;;;18.35;100.00;102122.31;5005654;28;45763;-78
2023/10/07 07:55:44;;;;;;;;;21.33;16.33;;;;;18.49;100.00;102148.91;5008752;28;45698;-77
2023/10/07 07:58:10;;;;;;;;;30.00;22.67;;;;;18.61;100.00;102146.22;5005975;28;46674;-76
2023/10/07 08:00:45;;;;;;;;;51.25;37.75;;;;;18.62;100.00;102147.94;5019560;28;46824;-78
2023/10/07 08:03:16;;;;;;;;;18.67;17.33;;;;;18.76;100.00;102159.75;5007167;28;45790;-76
2023/10/07 08:05:42;;;;;;;;;22.00;19.67;;;;;18.73;100.00;102148.22;5017014;28;47395;-77
2023/10/07 08:08:29;;;;;;;;;20.33;19.00;;;;;18.86;100.00;102151.78;5016964;28;45888;-84
2023/10/07 08:10:55;;;;;;;;;21.33;17.67;;;;;18.91;100.00;102139.97;5021028;28;47572;-78
2023/10/07 08:13:27;;;;;;;;;24.00;20.33;;;;;18.97;100.00;102141.81;5012910;28;45438;-79
2023/10/07 08:15:53;;;;;;;;;21.67;18.67;;;;;18.93;100.00;102135.00;5015102;28;45529;-77
2023/10/07 08:18:31;;;;;;;;;24.33;19.33;;;;;19.06;100.00;102147.94;5011999;28;46872;-77
2023/10/07 08:21:06;;;;;;;;;22.33;17.67;;;;;19.13;100.00;102154.28;5005800;28;46103;-76
2023/10/07 08:23:40;;;;;;;;;23.67;21.33;;;;;19.25;100.00;102167.38;5001879;28;45850;-77
2023/10/07 08:26:10;;;;;;;;;27.67;22.00;;;;;19.32;100.00;102162.59;5011378;28;45861;-76
2023/10/07 08:28:43;;;;;;;;;22.33;18.33;;;;;19.40;100.00;102165.03;5011505;28;45974;-77
2023/10/07 08:31:37;;;;;;;;;22.67;21.33;;;;;19.51;100.00;102175.41;5010752;28;47685;-77
2023/10/07 08:34:09;;;;;;;;;17.00;16.67;;;;;19.61;100.00;102180.44;5008490;28;46009;-78
2023/10/07 08:36:43;;;;;;;;;19.33;16.33;;;;;19.66;100.00;102169.44;5011918;28;45938;-77
2023/10/07 08:39:09;;;;;;;;;23.33;19.67;;;;;19.73;100.00;102169.31;5011133;28;46180;-78
2023/10/07 08:41:40;;;;;;;;;24.67;21.33;;;;;19.88;100.00;102171.72;5016124;28;45760;-76
2023/10/07 08:44:13;;;;;;;;;22.67;19.33;;;;;20.03;100.00;102179.63;5017946;28;45732;-77
2023/10/07 08:46:40;;;;;;;;;22.67;21.00;;;;;19.96;100.00;102156.63;5016132;28;45708;-77
2023/10/07 08:49:16;;;;;;;;;20.67;18.33;;;;;20.14;100.00;102180.78;5013853;28;45773;-79
2023/10/07 08:51:45;;;;;;;;;16.67;16.00;;;;;20.06;100.00;102149.38;5012741;28;45716;-78
2023/10/07 08:54:17;;;;;;;;;20.33;20.33;;;;;20.22;100.00;102156.19;5017619;28;45791;-77
2023/10/07 08:56:54;;;;;;;;;21.00;19.00;;;;;20.52;100.00;102182.28;5017149;28;45434;-77
2023/10/07 08:59:22;;;;;;;;;22.33;19.00;;;;;20.63;100.00;102175.88;5012364;28;45946;-76
2023/10/07 09:01:57;;;;;;;;;22.00;18.00;;;;;20.61;100.00;102166.91;5025748;28;45564;-78
2023/10/07 09:04:24;;;;;;;;;17.33;16.00;;;;;20.70;100.00;102167.41;5013292;28;45430;-77
2023/10/07 09:06:52;;;;;;;;;20.67;19.33;;;;;20.97;100.00;102190.94;5016263;28;45652;-79
2023/10/07 09:09:38;;;;;;;;;22.33;19.33;;;;;20.97;100.00;102178.91;5015444;28;46458;-79
2023/10/07 09:12:18;;;;;;;;;16.00;16.00;;;;;21.29;100.00;102179.38;5020238;28;45713;-78
2023/10/07 09:14:51;;;;;;;;;16.67;15.67;;;;;22.48;100.00;102187.25;5013731;28;46304;-80
2023/10/07 09:17:23;;;;;;;;;32.67;28.00;;;;;23.73;100.00;102186.81;5021435;28;45836;-80
2023/10/07 09:19:52;;;;;;;;;22.67;17.67;;;;;24.90;100.00;102179.75;5037057;28;45913;-80
2023/10/07 09:22:34;;;;;;;;;15.00;15.00;;;;;26.21;100.00;102181.69;5018667;28;45509;-81
2023/10/07 09:25:21;;;;;;;;;16.33;14.33;;;;;27.25;100.00;102157.06;5016566;28;45783;-80
2023/10/07 09:27:56;;;;;;;;;16.67;11.00;;;;;28.54;100.00;102180.50;5011853;28;45825;-80
2023/10/07 09:33:14;;;;;;;;;17.25;13.25;;;;;30.43;88.25;102174.75;5012895;28;45519;-80
2023/10/07 09:35:42;;;;;;;;;12.50;10.00;;;;;31.04;82.52;102152.13;5012708;28;45872;-79
2023/10/07 09:38:12;;;;;;;;;16.00;14.25;;;;;31.78;77.13;102163.28;4998737;28;45770;-79
2023/10/07 09:43:27;;;;;;;;;15.25;13.25;;;;;33.11;69.75;102168.69;5012996;28;45968;-78
2023/10/07 09:45:53;;;;;;;;;14.00;13.00;;;;;33.65;65.80;102177.03;5012523;28;45447;-78
2023/10/07 09:48:24;;;;;;;;;11.50;11.50;;;;;33.92;63.64;102165.38;5012482;28;45381;-79
2023/10/07 09:50:56;;;;;;;;;13.75;12.25;;;;;34.20;62.33;102142.22;5014333;28;45875;-77
2023/10/07 09:53:59;;;;;;;;;11.75;11.75;;;;;34.80;61.92;102173.81;5013378;28;46945;-80
2023/10/07 09:56:33;;;;;;;;;14.00;9.75;;;;;35.04;57.59;102178.09;5028705;28;45913;-79
2023/10/07 09:59:35;;;;;;;;;10.75;9.75;;;;;35.34;56.81;102178.97;5017073;28;45729;-78
2023/10/07 10:02:16;;;;;;;;;11.00;9.75;;;;;35.69;55.13;102176.72;5002409;28;45690;-79
2023/10/07 10:05:12;;;;;;;;;24.67;20.00;;;;;35.76;53.76;102176.16;5010232;28;47068;-81
2023/10/07 10:08:19;;;;;;;;;18.50;18.00;;;;;35.91;52.96;102189.00;5010456;28;45579;-78
2023/10/07 10:10:57;;;;;;;;;9.75;9.00;;;;;35.94;50.94;102162.59;5006383;28;45514;-81
2023/10/07 10:16:12;;;;;;;;;21.00;19.75;;;;;36.14;49.80;102168.63;5012372;28;45747;-79
2023/10/07 10:18:44;;;;;;;;;7.50;7.25;;;;;35.94;48.40;102158.91;5011503;28;45643;-79
2023/10/07 10:21:12;;;;;;;;;7.75;7.75;;;;;35.88;47.76;102169.72;5013671;28;45863;-79
2023/10/07 10:23:40;;;;;;;;;9.00;7.75;;;;;35.75;48.08;102174.50;5014721;28;46194;-82
2023/10/07 10:26:27;;;;;;;;;10.25;7.50;;;;;35.75;48.03;102182.19;5006491;28;47167;-84
2023/10/07 10:29:07;;;;;;;;;6.50;6.25;;;;;35.57;47.95;102170.09;5015690;28;45585;-81
2023/10/07 10:31:34;;;;;;;;;12.75;10.75;;;;;35.26;48.09;102137.88;5019960;28;45562;-82
2023/10/07 10:34:05;;;;;;;;;10.00;7.25;;;;;35.25;48.34;102164.72;5023371;28;45458;-83
2023/10/07 10:36:36;;;;;;;;;11.00;7.00;;;;;34.97;47.14;102150.09;5015254;28;47613;-83
2023/10/07 10:39:18;;;;;;;;;7.75;6.00;;;;;34.44;45.96;102132.34;5010540;28;45601;-83
2023/10/07 10:41:46;;;;;;;;;11.50;10.25;;;;;34.20;47.87;102125.16;5015458;28;45935;-83
2023/10/07 10:44:12;;;;;;;;;9.00;8.00;;;;;34.08;48.34;102162.03;5018080;28;45516;-82
2023/10/07 10:46:49;;;;;;;;;5.25;5.25;;;;;33.67;48.58;102126.31;5015257;28;47060;-82
2023/10/07 10:49:16;;;;;;;;;5.25;5.00;;;;;33.34;48.04;102124.78;5015621;28;45896;-84
2023/10/07 10:51:45;;;;;;;;;5.00;4.25;;;;;32.85;47.89;102138.16;5014156;28;45525;-82
2023/10/07 10:54:23;;;;;;;;;6.00;5.75;;;;;32.61;48.90;102155.56;5022372;28;45880;-83
2023/10/07 10:57:52;;;;;;;;;;;;;;;;;;;;;
2023/10/07 11:01:43;;;;;;;;;;;;;;;;;;;;;
2023/10/07 11:04:57;;;;;;;;;5.50;5.25;;;;;31.35;51.15;102129.63;4984903;28;44788;-83
2023/10/07 11:10:44;;;;;;;;;5.00;3.75;;;;;30.56;53.07;102151.28;4957724;28;45457;-82
2023/10/07 11:13:09;;;;;;;;;6.25;5.50;;;;;30.07;52.97;102118.72;4957674;28;45543;-83
2023/10/07 11:15:35;;;;;;;;;6.00;4.75;;;;;29.96;54.09;102140.69;4957763;28;45836;-79
2023/10/07 11:18:11;;;;;;;;;4.75;3.50;;;;;29.60;55.00;102144.03;4947114;28;45469;-80
2023/10/07 11:20:43;;;;;;;;;8.75;5.75;;;;;29.37;55.82;102143.78;4953670;28;45709;-81
2023/10/07 11:23:10;;;;;;;;;5.25;5.00;;;;;29.16;55.85;102145.13;4986815;28;45996;-80
2023/10/07 11:25:36;;;;;;;;;8.50;8.00;;;;;28.87;56.76;102144.06;5021554;28;45547;-79
2023/10/07 11:28:09;;;;;;;;;5.00;5.00;;;;;28.53;57.01;102124.34;5021063;28;45612;-80
2023/10/07 11:30:47;;;;;;;;;9.00;6.00;;;;;28.29;58.94;102136.41;5017988;28;47625;-81
2023/10/07 11:33:17;;;;;;;;;6.25;4.25;;;;;28.14;59.87;102133.75;5031016;28;45382;-80
2023/10/07 11:35:46;;;;;;;;;6.50;5.25;;;;;27.82;60.07;102130.28;5018022;28;45495;-81
2023/10/07 11:38:12;;;;;;;;;8.00;6.50;;;;;27.70;60.95;102134.59;5015847;28;45560;-81
2023/10/07 11:40:43;;;;;;;;;7.00;4.25;;;;;27.45;61.76;102133.59;5013838;28;45536;-80
2023/10/07 11:43:09;;;;;;;;;5.25;4.00;;;;;27.22;62.59;102123.84;5009506;28;45419;-84
2023/10/07 11:45:36;;;;;;;;;5.00;5.00;;;;;27.10;64.20;102126.97;5014258;28;45574;-82
2023/10/07 11:48:05;;;;;;;;;7.25;5.25;;;;;26.77;64.24;102101.19;5016161;28;46122;-84
2023/10/07 11:50:36;;;;;;;;;11.50;9.00;;;;;26.68;64.99;102114.16;5017834;28;46219;-83
2023/10/07 11:53:03;;;;;;;;;5.50;5.00;;;;;26.60;66.04;102121.16;5014677;28;45616;-82
2023/10/07 11:55:31;;;;;;;;;8.75;8.75;;;;;26.49;66.49;102128.78;5019641;28;45852;-82
2023/10/07 11:58:00;;;;;;;;;15.67;11.33;;;;;26.39;68.25;102135.28;5023072;28;45700;-81
2023/10/07 12:00:34;;;;;;;;;10.00;5.75;;;;;26.30;67.79;102136.94;5015430;28;46218;-83
2023/10/07 12:03:01;;;;;;;;;4.25;3.75;;;;;26.19;68.98;102136.13;5019896;28;45491;-85
2023/10/07 12:05:28;;;;;;;;;6.50;5.50;;;;;25.98;68.21;102128.78;5015148;28;45547;-83
2023/10/07 12:08:01;;;;;;;;;5.25;4.25;;;;;25.83;69.79;102116.38;5032408;28;46965;-84
2023/10/07 12:10:33;;;;;;;;;5.75;5.50;;;;;25.88;70.95;102135.22;5025195;28;47711;-84
2023/10/07 12:13:00;;;;;;;;;6.50;6.50;;;;;25.75;70.59;102125.38;5014670;28;45563;-83
2023/10/07 12:15:30;;;;;;;;;5.75;5.00;;;;;25.67;71.95;102134.34;5015976;28;45717;-84
2023/10/07 12:17:56;;;;;;;;;6.50;5.50;;;;;25.60;72.57;102128.13;5013372;28;46544;-84
2023/10/07 12:20:22;;;;;;;;;8.00;4.25;;;;;25.48;72.59;102131.19;5013399;28;45388;-83
2023/10/07 12:22:48;;;;;;;;;8.75;7.00;;;;;25.25;73.39;102104.41;5015221;28;45539;-84
2023/10/07 12:25:16;;;;;;;;;5.00;5.00;;;;;25.27;73.83;102122.69;5015367;28;45833;-83
2023/10/07 12:27:47;;;;;;;;;8.75;6.50;;;;;25.28;75.45;102127.16;5017109;28;45764;-88
2023/10/07 12:30:14;;;;;;;;;7.00;4.25;;;;;25.22;75.16;102136.69;5014139;28;47057;-85
2023/10/07 12:32:45;;;;;;;;;5.50;5.50;;;;;25.05;74.73;102114.44;5018399;28;45394;-82
2023/10/07 12:35:11;;;;;;;;;5.75;4.75;;;;;25.09;74.85;102129.63;5009557;28;45403;-82
2023/10/07 12:37:41;;;;;;;;;5.25;5.25;;;;;25.05;76.05;102133.25;5012993;28;46090;-84